KHOU METAR and TAF | Updated Today

KHOU METAR

William P Hobby Airport

Observation time: 19 min. ago

KHOU 301953Z 04015KT 10SM CLR 18/01 A3025 RMK AO2 PK WND 03026/1941 SLP247 T01780006

Need help? Read our tutorial on how to read METARs or read the parsed version below.

William P Hobby Airport (KHOU) METAR

  • Weather conditions on Wed, 30 Nov 2022 19:53:00 +0000 (19 min. ago):
  • Present conditions: Dry
  • Clouds: Clear skies
  • Visibility: 16093 meters
  • Wind: 40 degrees at 15 knots
  • Temperature: 18 celsius
  • Dew point: 1 celsius
  • Pressure: 30.25 inHg
  • Remarks: AO2 PK WND 03026/1941 SLP247 T01780006


Useful to know...

KHOU TAF

William P Hobby Airport

KHOU 301723Z 3018/0118 01016G26KT P6SM SKC FM010100 02011KT P6SM SKC FM010800 05006KT P6SM SKC FM011600 09008KT P6SM SCT030
Observation time: 2:49 hr. ago
Need help? Read our tutorial on how to read TAFs or read the parsed version below.

Parsed version of TAF for William P Hobby Airport (KHOU)

  • From 30 November at 18:00 UTC, to day 01 of the month at 18:00 UTC
  • Clouds: No significant changes expected
  • Wind: 10 degrees at 16
  • From day 1 of the month at 01:00 UTC
  • Clouds: No significant changes expected
  • Wind: 20 degrees at 11
  • From day 1 of the month at 08:00 UTC
  • Clouds: No significant changes expected
  • Wind: 50 degrees at 6
  • From day 1 of the month at 16:00 UTC
  • Clouds: Scattered at 914 meters
  • Wind: 90 degrees at 8